createdAt,value
2023-04-09T00:00:52.739Z,88.2690
2023-04-09T00:01:53.110Z,88.0242
2023-04-09T00:02:53.748Z,88.3963
2023-04-09T00:03:54.342Z,88.0930
2023-04-09T00:04:54.668Z,88.6902
2023-04-09T00:05:55.010Z,88.6736
2023-04-09T00:06:55.347Z,88.7899
2023-04-09T00:07:55.687Z,88.8449
2023-04-09T00:08:56.024Z,89.4160
2023-04-09T00:09:56.341Z,89.3895
2023-04-09T00:10:56.713Z,89.4507
2023-04-09T00:11:57.163Z,89.6618
2023-04-09T00:12:57.567Z,89.6621
2023-04-09T00:13:57.908Z,89.3254
2023-04-09T00:14:58.259Z,89.5595
2023-04-09T00:15:58.617Z,89.8487
2023-04-09T00:16:58.964Z,89.9718
2023-04-09T00:17:59.747Z,89.9833
2023-04-09T00:19:00.140Z,89.5162
2023-04-09T00:20:00.516Z,89.3200
2023-04-09T00:21:00.822Z,89.5660
2023-04-09T00:22:01.207Z,89.2843
2023-04-09T00:23:01.590Z,89.2523
2023-04-09T00:24:02.033Z,89.0656
2023-04-09T00:25:02.440Z,89.1876
2023-04-09T00:26:02.837Z,89.1684
2023-04-09T00:27:03.237Z,89.4010
2023-04-09T00:28:03.596Z,89.0181
2023-04-09T00:29:03.982Z,89.0548
2023-04-09T00:30:04.383Z,89.2431
2023-04-09T00:31:04.737Z,89.2077
2023-04-09T00:32:05.236Z,89.7081
2023-04-09T00:33:05.734Z,89.7418
2023-04-09T00:34:06.007Z,89.4139
2023-04-09T00:35:06.411Z,89.6520
2023-04-09T00:36:06.764Z,89.4529
2023-04-09T00:37:07.116Z,89.4728
2023-04-09T00:38:07.580Z,89.6780
2023-04-09T00:39:07.918Z,89.7666
2023-04-09T00:40:08.319Z,90.0415
2023-04-09T00:41:08.699Z,89.9988
2023-04-09T00:42:09.098Z,89.8542
2023-04-09T00:43:09.480Z,89.8777
2023-04-09T00:44:09.818Z,89.9266
2023-04-09T00:45:10.218Z,89.8434
2023-04-09T00:46:10.696Z,89.9158
2023-04-09T00:47:11.077Z,90.1124
2023-04-09T00:48:11.500Z,90.0308
2023-04-09T00:49:11.849Z,90.1687
2023-04-09T00:50:12.260Z,90.2009
2023-04-09T00:51:12.646Z,90.2087
2023-04-09T00:52:13.047Z,90.2411
2023-04-09T00:53:13.423Z,90.0684
2023-04-09T00:54:13.880Z,90.2342
2023-04-09T00:55:14.226Z,90.2511
2023-04-09T00:56:14.662Z,90.5934
2023-04-09T00:57:15.045Z,90.7037
2023-04-09T00:58:15.386Z,90.7155
2023-04-09T00:59:15.805Z,90.7067
2023-04-09T01:00:16.154Z,90.6822
2023-04-09T01:01:16.626Z,90.5350
2023-04-09T01:02:17.132Z,90.7147
2023-04-09T01:03:17.716Z,90.8777
2023-04-09T01:04:18.117Z,90.6554
2023-04-09T01:05:18.509Z,90.2938
2023-04-09T01:06:18.909Z,90.5764
2023-04-09T01:07:19.304Z,90.4826
2023-04-09T01:08:19.654Z,90.5370
2023-04-09T01:09:20.031Z,90.3887
2023-04-09T01:10:20.385Z,90.1717
2023-04-09T01:11:20.757Z,90.3728
2023-04-09T01:12:21.208Z,90.3775
2023-04-09T01:13:21.608Z,90.3449
2023-04-09T01:14:22.075Z,90.4035
2023-04-09T01:15:22.490Z,90.3348
2023-04-09T01:16:22.945Z,90.3747
2023-04-09T01:17:23.348Z,90.2559
2023-04-09T01:18:23.775Z,90.1143
2023-04-09T01:19:24.171Z,90.2020
2023-04-09T01:20:24.530Z,90.1141
2023-04-09T01:21:24.906Z,89.8709
2023-04-09T01:22:25.360Z,89.8952
2023-04-09T01:23:25.745Z,89.7564
2023-04-09T01:24:26.215Z,89.5361
2023-04-09T01:25:26.664Z,89.5182
2023-04-09T01:26:26.984Z,89.9193
2023-04-09T01:27:27.388Z,89.8648
2023-04-09T01:28:27.832Z,89.8809
2023-04-09T01:29:28.300Z,90.0066
2023-04-09T01:30:28.749Z,90.0275
2023-04-09T01:31:29.127Z,89.9501
2023-04-09T01:32:29.702Z,89.9016
2023-04-09T01:33:30.084Z,89.8767
2023-04-09T01:34:30.434Z,89.9884
2023-04-09T01:35:30.924Z,90.1254
2023-04-09T01:36:31.333Z,90.0639
2023-04-09T01:37:31.780Z,90.3990
2023-04-09T01:38:32.252Z,90.2313
2023-04-09T01:39:32.608Z,90.1632
2023-04-09T01:40:33.024Z,90.2622
2023-04-09T01:41:33.395Z,90.3426
2023-04-09T01:42:33.774Z,90.6161
2023-04-09T01:43:34.253Z,90.6588
2023-04-09T01:44:34.644Z,90.5322
2023-04-09T01:45:35.006Z,90.4419
2023-04-09T01:46:35.523Z,90.1462
2023-04-09T01:47:36.485Z,89.8781
2023-04-09T01:48:36.838Z,90.0447
2023-04-09T01:49:37.220Z,89.6272
2023-04-09T01:50:37.630Z,89.5887
2023-04-09T01:51:37.991Z,89.9629
2023-04-09T01:52:38.386Z,90.2174
2023-04-09T01:53:38.726Z,90.1333
2023-04-09T01:54:39.098Z,90.1122
2023-04-09T01:55:39.487Z,90.1528
2023-04-09T01:56:39.860Z,90.1562
2023-04-09T01:57:40.315Z,90.2231
2023-04-09T01:58:40.726Z,90.4350
2023-04-09T01:59:41.182Z,90.4592
2023-04-09T02:00:41.517Z,90.7885
2023-04-09T02:01:42.157Z,91.0620
2023-04-09T02:02:42.769Z,91.4004
2023-04-09T02:03:43.543Z,91.3975
2023-04-09T02:04:43.916Z,91.3864
2023-04-09T02:05:44.275Z,91.1245
2023-04-09T02:06:44.659Z,91.3116
2023-04-09T02:07:45.150Z,91.7705
2023-04-09T02:08:45.629Z,91.7534
2023-04-09T02:09:46.015Z,91.4574
2023-04-09T02:10:46.406Z,91.4058
2023-04-09T02:11:46.853Z,91.2295
2023-04-09T02:12:47.271Z,91.0919
2023-04-09T02:13:47.660Z,91.0492
2023-04-09T02:14:48.029Z,91.0404
2023-04-09T02:15:48.519Z,91.2058
2023-04-09T02:16:48.972Z,91.4809
2023-04-09T02:17:49.609Z,91.0327
2023-04-09T02:18:50.895Z,91.1941
2023-04-09T02:19:51.810Z,90.9911
2023-04-09T02:20:52.210Z,90.7790
2023-04-09T02:21:52.621Z,90.8137
2023-04-09T02:22:52.943Z,90.8613
2023-04-09T02:23:53.347Z,91.3110
2023-04-09T02:24:53.777Z,91.4361
2023-04-09T02:25:54.188Z,91.1527
2023-04-09T02:26:54.603Z,91.0148
2023-04-09T02:27:54.985Z,91.2045
2023-04-09T02:28:55.343Z,91.0411
2023-04-09T02:29:55.735Z,91.3501
2023-04-09T02:30:56.176Z,91.3226
2023-04-09T02:31:56.623Z,91.5120
2023-04-09T02:32:57.058Z,91.3603
2023-04-09T02:33:57.471Z,91.3698
2023-04-09T02:34:57.927Z,91.1937
2023-04-09T02:35:58.413Z,91.1155
2023-04-09T02:36:58.799Z,91.1448
2023-04-09T02:37:59.207Z,91.1792
2023-04-09T02:38:59.612Z,90.9652
2023-04-09T02:39:59.983Z,90.9966
2023-04-09T02:41:00.390Z,90.9719
2023-04-09T02:42:00.761Z,90.8536
2023-04-09T02:43:01.217Z,91.1246
2023-04-09T02:44:01.622Z,91.1963
2023-04-09T02:45:02.014Z,90.9853
2023-04-09T02:46:02.566Z,91.0624
2023-04-09T02:47:02.999Z,90.7395
2023-04-09T02:48:03.472Z,90.7226
2023-04-09T02:49:03.884Z,90.7088
2023-04-09T02:50:04.325Z,90.7763
2023-04-09T02:51:04.703Z,90.8052
2023-04-09T02:52:05.334Z,90.8607
2023-04-09T02:53:05.752Z,90.6854
2023-04-09T02:54:06.194Z,90.6273
2023-04-09T02:55:06.575Z,90.6482
2023-04-09T02:56:06.972Z,90.8559
2023-04-09T02:57:07.353Z,90.7456
2023-04-09T02:58:07.779Z,90.5472
2023-04-09T02:59:08.202Z,90.0760
2023-04-09T03:00:08.625Z,89.7986
2023-04-09T03:01:09.084Z,89.8187
2023-04-09T03:02:09.679Z,89.8891
2023-04-09T03:03:10.714Z,89.9348
2023-04-09T03:04:11.759Z,90.4027
2023-04-09T03:05:12.161Z,90.7491
2023-04-09T03:06:12.549Z,90.7166
2023-04-09T03:07:12.911Z,90.8219
2023-04-09T03:08:13.419Z,90.6050
2023-04-09T03:09:13.840Z,90.6103
2023-04-09T03:10:14.348Z,90.7280
2023-04-09T03:11:14.753Z,90.7905
2023-04-09T03:12:15.153Z,91.1602
2023-04-09T03:13:15.625Z,91.0719
2023-04-09T03:14:16.029Z,91.0550
2023-04-09T03:15:17.269Z,91.1281
2023-04-09T03:16:17.753Z,91.2832
2023-04-09T03:17:18.174Z,91.6402
2023-04-09T03:18:18.612Z,91.8179
2023-04-09T03:19:19.038Z,91.9230
2023-04-09T03:20:19.441Z,92.2114
2023-04-09T03:21:19.844Z,92.1713
2023-04-09T03:22:20.269Z,92.0856
2023-04-09T03:23:20.754Z,92.2066
2023-04-09T03:24:21.153Z,92.2268
2023-04-09T03:25:21.569Z,92.3075
2023-04-09T03:26:21.961Z,92.2141
2023-04-09T03:27:22.358Z,92.2269
2023-04-09T03:28:22.855Z,92.2836
2023-04-09T03:29:23.293Z,91.8712
2023-04-09T03:30:23.670Z,92.0589
2023-04-09T03:31:24.218Z,92.0392
2023-04-09T03:32:24.711Z,91.9240
2023-04-09T03:33:25.153Z,91.8741
2023-04-09T03:34:25.576Z,92.0349
2023-04-09T03:35:25.962Z,92.0535
2023-04-09T03:36:26.372Z,91.6842
2023-04-09T03:37:26.855Z,91.1692
2023-04-09T03:38:27.212Z,91.0059
2023-04-09T03:39:27.631Z,91.4172
2023-04-09T03:40:28.114Z,91.6632
2023-04-09T03:41:28.516Z,91.5083
2023-04-09T03:42:28.940Z,91.6933
2023-04-09T03:43:29.356Z,91.7966
2023-04-09T03:44:29.824Z,91.7887
2023-04-09T03:45:30.239Z,91.7464
2023-04-09T03:46:30.912Z,91.8455
2023-04-09T03:47:31.418Z,91.7962
2023-04-09T03:48:31.865Z,91.6084
2023-04-09T03:49:32.265Z,91.5514
2023-04-09T03:50:32.674Z,91.7216
2023-04-09T03:51:33.066Z,92.0284
2023-04-09T03:52:33.584Z,92.0571
2023-04-09T03:53:33.957Z,91.9245
2023-04-09T03:54:34.414Z,91.7503
2023-04-09T03:55:34.841Z,91.6730
2023-04-09T03:56:35.241Z,91.6915
2023-04-09T03:57:35.634Z,91.7284
2023-04-09T03:58:36.101Z,91.8124
2023-04-09T03:59:36.494Z,91.7800
2023-04-09T04:00:36.896Z,91.9314
2023-04-09T04:01:37.388Z,92.1414
2023-04-09T04:02:38.295Z,92.3562
2023-04-09T04:03:39.248Z,92.3948
2023-04-09T04:04:39.789Z,92.5917
2023-04-09T04:05:40.159Z,92.6435
2023-04-09T04:06:40.591Z,92.7201
2023-04-09T04:07:40.948Z,92.7734
2023-04-09T04:08:41.408Z,92.7619
2023-04-09T04:09:41.836Z,92.7777
2023-04-09T04:10:42.387Z,92.6561
2023-04-09T04:11:42.724Z,92.6349
2023-04-09T04:12:43.143Z,92.6301
2023-04-09T04:13:43.589Z,92.4514
2023-04-09T04:14:43.967Z,92.2114
2023-04-09T04:15:44.360Z,92.4786
2023-04-09T04:16:44.849Z,92.4817
2023-04-09T04:17:45.408Z,92.3443
2023-04-09T04:18:45.853Z,92.4356
2023-04-09T04:19:46.326Z,92.3389
2023-04-09T04:20:46.766Z,92.4435
2023-04-09T04:21:47.246Z,92.6486
2023-04-09T04:22:47.657Z,92.5503
2023-04-09T04:23:48.176Z,92.5105
2023-04-09T04:24:48.617Z,92.7384
2023-04-09T04:25:49.088Z,92.7666
2023-04-09T04:26:49.528Z,92.8102
2023-04-09T04:27:49.976Z,92.7591
2023-04-09T04:28:51.036Z,92.5520
2023-04-09T04:29:51.818Z,92.5737
2023-04-09T04:30:52.240Z,92.6189
2023-04-09T04:31:52.827Z,92.6267
2023-04-09T04:32:53.377Z,92.6497
2023-04-09T04:33:53.808Z,92.4110
2023-04-09T04:34:54.275Z,92.2874
2023-04-09T04:35:54.800Z,92.4025
2023-04-09T04:36:55.229Z,92.0059
2023-04-09T04:37:55.724Z,91.6136
2023-04-09T04:38:56.163Z,91.5703
2023-04-09T04:39:56.610Z,91.5992
2023-04-09T04:40:57.165Z,91.5418
2023-04-09T04:41:57.598Z,91.7624
2023-04-09T04:42:57.988Z,92.1158
2023-04-09T04:43:58.474Z,92.0630
2023-04-09T04:44:58.897Z,91.7989
2023-04-09T04:45:59.510Z,91.9713
2023-04-09T04:46:59.942Z,91.8428
2023-04-09T04:48:00.513Z,91.7779
2023-04-09T04:49:00.981Z,91.8063
2023-04-09T04:50:01.516Z,91.7489
2023-04-09T04:51:01.985Z,91.7900
2023-04-09T04:52:02.438Z,91.5824
2023-04-09T04:53:02.878Z,91.4707
2023-04-09T04:54:03.408Z,91.4797
2023-04-09T04:55:03.914Z,91.4669
2023-04-09T04:56:04.333Z,91.4794
2023-04-09T04:57:04.838Z,91.2495
2023-04-09T04:58:05.272Z,91.1943
2023-04-09T04:59:05.815Z,91.2527
2023-04-09T05:00:06.221Z,91.2940
2023-04-09T05:01:06.702Z,91.1617
2023-04-09T05:02:07.240Z,90.9487
2023-04-09T05:03:07.793Z,90.6771
2023-04-09T05:04:08.311Z,90.7179
2023-04-09T05:05:08.734Z,90.7990
2023-04-09T05:06:09.195Z,91.1717
2023-04-09T05:07:09.692Z,91.2788
2023-04-09T05:08:10.100Z,91.0948
2023-04-09T05:09:10.580Z,91.1663
2023-04-09T05:10:11.081Z,91.4193
2023-04-09T05:11:11.545Z,91.3133
2023-04-09T05:12:12.024Z,91.1866
2023-04-09T05:13:12.483Z,91.0655
2023-04-09T05:14:12.994Z,90.9519
2023-04-09T05:15:13.433Z,91.2785
2023-04-09T05:16:13.902Z,91.3421
2023-04-09T05:17:14.300Z,91.0624
2023-04-09T05:18:14.739Z,90.9039
2023-04-09T05:19:15.184Z,90.8701
2023-04-09T05:20:15.620Z,90.8053
2023-04-09T05:21:16.066Z,90.7502
2023-04-09T05:22:16.460Z,90.9050
2023-04-09T05:23:16.971Z,91.0095
2023-04-09T05:24:17.454Z,91.0484
2023-04-09T05:25:17.915Z,90.8726
2023-04-09T05:26:18.330Z,90.9875
2023-04-09T05:27:18.794Z,90.6784
2023-04-09T05:28:19.239Z,90.9518
2023-04-09T05:29:19.769Z,91.2984
2023-04-09T05:30:20.267Z,91.2303
2023-04-09T05:31:20.712Z,91.2399
2023-04-09T05:32:21.310Z,90.9975
2023-04-09T05:33:21.828Z,91.2237
2023-04-09T05:34:22.305Z,91.4897
2023-04-09T05:35:22.775Z,91.3926
2023-04-09T05:36:23.273Z,91.3946
2023-04-09T05:37:23.715Z,91.4813
2023-04-09T05:38:24.183Z,91.4706
2023-04-09T05:39:24.676Z,91.5321
2023-04-09T05:40:25.181Z,91.2345
2023-04-09T05:41:25.577Z,91.0106
2023-04-09T05:42:26.049Z,91.1381
2023-04-09T05:43:26.453Z,91.1233
2023-04-09T05:44:27.035Z,91.1582
2023-04-09T05:45:27.451Z,91.4400
2023-04-09T05:46:28.035Z,91.5030
2023-04-09T05:47:28.478Z,91.2917
2023-04-09T05:48:28.882Z,91.3220
2023-04-09T05:49:29.317Z,91.5821
2023-04-09T05:50:31.851Z,91.3924
2023-04-09T05:51:30.259Z,91.2985
2023-04-09T05:52:30.713Z,91.1814
2023-04-09T05:53:31.200Z,90.7671
2023-04-09T05:54:31.702Z,90.6590
2023-04-09T05:55:32.147Z,90.5861
2023-04-09T05:56:32.683Z,90.5499
2023-04-09T05:57:33.126Z,90.8271
2023-04-09T05:58:33.572Z,90.7426
2023-04-09T05:59:34.033Z,90.8084
2023-04-09T06:00:34.483Z,90.6873
2023-04-09T06:01:34.951Z,90.6570
2023-04-09T06:02:35.487Z,90.5777
2023-04-09T06:03:36.225Z,90.4922
2023-04-09T06:04:36.768Z,90.6174
2023-04-09T06:05:37.168Z,90.6654
2023-04-09T06:06:37.613Z,90.4068
2023-04-09T06:07:38.114Z,90.3029
2023-04-09T06:08:38.528Z,90.2954
2023-04-09T06:09:38.938Z,90.1786
2023-04-09T06:10:41.688Z,90.4818
2023-04-09T06:11:39.797Z,90.0042
2023-04-09T06:12:41.356Z,90.0254
2023-04-09T06:13:41.847Z,90.1773
2023-04-09T06:14:42.346Z,90.2306
2023-04-09T06:15:42.823Z,90.0891
2023-04-09T06:16:43.266Z,89.7568
2023-04-09T06:17:43.865Z,89.8915
2023-04-09T06:18:44.265Z,90.1509
2023-04-09T06:19:44.768Z,89.6106
2023-04-09T06:20:45.187Z,89.0494
2023-04-09T06:21:45.632Z,88.8148
2023-04-09T06:22:46.392Z,88.7536
2023-04-09T06:23:46.846Z,88.3622
2023-04-09T06:24:47.347Z,88.4478
2023-04-09T06:25:47.823Z,88.4534
2023-04-09T06:26:48.318Z,87.9417
2023-04-09T06:27:48.747Z,87.8316
2023-04-09T06:28:49.196Z,87.6849
2023-04-09T06:29:49.685Z,87.4486
2023-04-09T06:30:50.240Z,87.0942
2023-04-09T06:31:50.754Z,87.0273
2023-04-09T06:32:55.820Z,86.7828
2023-04-09T06:33:52.644Z,86.5659
2023-04-09T06:34:53.575Z,86.4418
2023-04-09T06:35:54.028Z,86.1699
2023-04-09T06:36:54.533Z,86.4675
2023-04-09T06:37:55.074Z,86.8674
2023-04-09T06:38:55.605Z,86.6863
2023-04-09T06:40:01.965Z,86.4057
2023-04-09T06:40:57.802Z,86.3540
2023-04-09T06:41:58.167Z,86.0291
2023-04-09T06:42:58.631Z,85.8599
2023-04-09T06:43:59.046Z,85.9159
2023-04-09T06:44:59.503Z,85.1841
2023-04-09T06:45:59.954Z,85.2226
2023-04-09T06:47:00.361Z,85.2998
2023-04-09T06:48:00.977Z,84.9806
2023-04-09T06:49:01.382Z,85.0746
2023-04-09T06:50:01.858Z,85.0021
2023-04-09T06:51:02.485Z,84.8206
2023-04-09T06:52:03.098Z,84.8263
2023-04-09T06:53:03.461Z,84.8469
2023-04-09T06:54:04.010Z,84.5225
2023-04-09T06:55:04.473Z,84.4684
2023-04-09T06:56:04.904Z,84.0756
2023-04-09T06:57:05.412Z,84.7726
2023-04-09T06:58:05.843Z,84.3593
2023-04-09T06:59:06.221Z,84.4789
2023-04-09T07:00:06.757Z,84.6293
2023-04-09T07:01:07.226Z,84.5340
2023-04-09T07:02:07.898Z,84.4322
2023-04-09T07:03:08.644Z,84.1353
2023-04-09T07:04:09.243Z,84.3847
2023-04-09T07:05:09.733Z,84.3560
2023-04-09T07:06:10.143Z,84.3835
2023-04-09T07:07:10.780Z,84.2985
2023-04-09T07:08:11.139Z,83.9162
2023-04-09T07:09:11.519Z,83.6137
2023-04-09T07:10:11.955Z,83.4323
2023-04-09T07:11:12.363Z,83.0485
2023-04-09T07:12:12.770Z,83.3379
2023-04-09T07:13:13.213Z,83.2066
2023-04-09T07:14:13.610Z,83.2697
2023-04-09T07:15:14.951Z,82.9756
2023-04-09T07:16:15.513Z,83.1439
2023-04-09T07:17:15.870Z,82.9922
2023-04-09T07:18:16.279Z,82.5730
2023-04-09T07:19:16.708Z,82.7532
2023-04-09T07:20:17.151Z,82.7402
2023-04-09T07:21:17.527Z,82.1221
2023-04-09T07:22:17.880Z,82.0621
2023-04-09T07:23:18.364Z,81.6513
2023-04-09T07:24:18.797Z,81.5962
2023-04-09T07:25:19.190Z,82.4618
2023-04-09T07:26:19.607Z,82.4825
2023-04-09T07:27:20.034Z,82.3641
2023-04-09T07:28:21.402Z,82.0771
2023-04-09T07:29:21.794Z,81.7158
2023-04-09T07:30:22.166Z,81.1841
2023-04-09T07:31:22.595Z,81.3224
2023-04-09T07:32:23.013Z,80.9969
2023-04-09T07:33:23.401Z,80.8758
2023-04-09T07:34:23.764Z,81.0938
2023-04-09T07:35:24.175Z,81.2489
2023-04-09T07:36:24.766Z,80.4866
2023-04-09T07:37:25.186Z,80.0993
2023-04-09T07:38:25.551Z,80.2235
2023-04-09T07:39:26.048Z,79.4850
2023-04-09T07:40:26.643Z,80.0002
2023-04-09T07:41:27.014Z,80.3939
2023-04-09T07:42:27.952Z,80.0889
2023-04-09T07:43:28.332Z,80.3900
2023-04-09T07:44:28.660Z,79.5165
2023-04-09T07:45:29.367Z,80.4050
2023-04-09T07:46:29.904Z,79.9584
2023-04-09T07:47:30.293Z,79.7510
2023-04-09T07:48:31.659Z,80.1090
2023-04-09T07:49:32.099Z,80.5905
2023-04-09T07:50:32.630Z,81.1701
2023-04-09T07:51:33.019Z,81.1168
2023-04-09T07:52:33.411Z,81.5273
2023-04-09T07:53:33.778Z,81.2543
2023-04-09T07:54:34.139Z,80.9392
2023-04-09T07:55:34.560Z,80.6513
2023-04-09T07:56:34.961Z,80.3810
2023-04-09T07:57:35.348Z,80.4015
2023-04-09T07:58:35.922Z,80.0890
2023-04-09T07:59:36.399Z,79.9441
2023-04-09T08:00:36.985Z,80.1494
2023-04-09T08:01:37.532Z,79.1035
2023-04-09T08:02:38.568Z,79.8740
2023-04-09T08:03:39.732Z,80.1140
2023-04-09T08:04:40.353Z,80.8334
2023-04-09T08:05:40.760Z,80.7700
2023-04-09T08:06:41.273Z,80.7615
2023-04-09T08:07:41.684Z,80.4508
2023-04-09T08:08:42.082Z,79.6798
2023-04-09T08:09:42.491Z,79.7730
2023-04-09T08:10:42.960Z,79.7687
2023-04-09T08:11:43.342Z,80.4641
2023-04-09T08:12:43.819Z,80.4489
2023-04-09T08:13:44.260Z,80.4563
2023-04-09T08:14:44.702Z,80.7849
2023-04-09T08:15:45.154Z,81.0924
2023-04-09T08:16:45.653Z,80.8847
2023-04-09T08:17:46.167Z,81.0344
2023-04-09T08:18:46.570Z,80.6161
2023-04-09T08:19:47.085Z,78.5329
2023-04-09T08:20:47.460Z,77.8532
2023-04-09T08:21:47.870Z,77.7250
2023-04-09T08:22:48.185Z,78.4593
2023-04-09T08:23:48.628Z,78.5342
2023-04-09T08:24:48.992Z,78.1533
2023-04-09T08:25:49.370Z,77.9279
2023-04-09T08:26:49.745Z,77.3014
2023-04-09T08:27:50.108Z,76.9816
2023-04-09T08:28:50.817Z,77.8106
2023-04-09T08:29:51.370Z,77.7495
2023-04-09T08:30:51.841Z,78.1632
2023-04-09T08:31:52.235Z,77.8308
2023-04-09T08:32:52.628Z,78.1150
2023-04-09T08:33:52.971Z,78.5124
2023-04-09T08:34:53.370Z,78.0677
2023-04-09T08:35:53.830Z,77.8928
2023-04-09T08:36:54.300Z,78.1826
2023-04-09T08:37:54.658Z,78.4527
2023-04-09T08:38:56.155Z,78.0638
2023-04-09T08:39:56.891Z,77.4837
2023-04-09T08:40:57.370Z,77.2123
2023-04-09T08:41:57.830Z,77.2645
2023-04-09T08:42:58.213Z,76.9400
2023-04-09T08:44:00.367Z,76.8617
2023-04-09T08:45:00.771Z,77.1264
2023-04-09T08:46:01.253Z,76.6648
2023-04-09T08:47:01.641Z,76.9292
2023-04-09T08:48:02.283Z,77.2150
2023-04-09T08:49:02.626Z,76.8704
2023-04-09T08:50:03.022Z,76.3722
2023-04-09T08:51:03.419Z,75.8959
2023-04-09T08:52:03.781Z,75.6012
2023-04-09T08:53:04.470Z,75.6285
2023-04-09T08:54:05.895Z,75.1976
2023-04-09T08:55:06.384Z,74.9945
2023-04-09T08:56:06.743Z,74.5108
2023-04-09T08:57:07.193Z,74.8197
2023-04-09T08:58:07.671Z,74.7841
2023-04-09T08:59:08.099Z,74.3038
2023-04-09T09:00:08.562Z,75.0315
2023-04-09T09:01:09.045Z,74.9902
2023-04-09T09:02:09.625Z,74.9703
2023-04-09T09:03:10.481Z,74.7713
2023-04-09T09:04:11.361Z,74.7301
2023-04-09T09:05:11.791Z,74.5763
2023-04-09T09:06:12.246Z,74.3777
2023-04-09T09:07:12.710Z,74.3650
2023-04-09T09:08:13.186Z,74.1534
2023-04-09T09:09:13.622Z,74.0026
2023-04-09T09:10:14.061Z,74.1414
2023-04-09T09:11:14.551Z,74.0565
2023-04-09T09:12:15.026Z,73.5855
2023-04-09T09:13:15.475Z,73.3679
2023-04-09T09:14:16.090Z,73.3141
2023-04-09T09:15:16.546Z,73.2694
2023-04-09T09:16:17.070Z,73.5788
2023-04-09T09:17:17.643Z,73.6450
2023-04-09T09:18:18.085Z,73.5396
2023-04-09T09:19:18.528Z,72.6773
2023-04-09T09:20:18.953Z,72.9105
2023-04-09T09:21:19.554Z,72.7136
2023-04-09T09:22:20.016Z,72.3725
2023-04-09T09:23:20.562Z,72.3672
2023-04-09T09:24:21.037Z,72.3895
2023-04-09T09:25:21.516Z,72.0233
2023-04-09T09:26:21.967Z,72.2449
2023-04-09T09:27:22.428Z,72.2602
2023-04-09T09:28:22.882Z,72.0202
2023-04-09T09:29:23.343Z,71.9084
2023-04-09T09:30:23.818Z,71.6699
2023-04-09T09:31:24.520Z,71.5447
2023-04-09T09:32:25.108Z,71.5115
2023-04-09T09:33:26.597Z,71.1421
2023-04-09T09:34:27.043Z,70.9562
2023-04-09T09:35:27.484Z,70.4522
2023-04-09T09:36:27.914Z,70.1656
2023-04-09T09:37:28.415Z,70.0604
2023-04-09T09:38:28.840Z,69.5723
2023-04-09T09:39:29.327Z,69.9022
2023-04-09T09:40:29.769Z,69.7662
2023-04-09T09:41:30.215Z,69.2346
2023-04-09T09:42:30.671Z,69.3857
2023-04-09T09:43:31.113Z,69.2577
2023-04-09T09:44:31.922Z,68.7400
2023-04-09T09:45:32.673Z,68.3525
2023-04-09T09:46:33.420Z,68.2042
2023-04-09T09:47:33.921Z,68.3473
2023-04-09T09:48:34.314Z,67.8142
2023-04-09T09:49:34.753Z,67.7381
2023-04-09T09:50:35.239Z,67.5685
2023-04-09T09:51:35.677Z,67.4851
2023-04-09T09:52:36.074Z,67.6301
2023-04-09T09:53:36.514Z,67.7698
2023-04-09T09:54:36.965Z,68.0027
2023-04-09T09:55:37.413Z,67.4299
2023-04-09T09:56:37.908Z,67.7293
2023-04-09T09:57:38.266Z,67.8707
2023-04-09T09:58:38.709Z,67.6527
2023-04-09T09:59:39.150Z,67.8119
2023-04-09T10:00:39.580Z,67.8210
2023-04-09T10:01:40.104Z,67.6884
2023-04-09T10:02:40.871Z,66.9780
2023-04-09T10:03:41.314Z,66.6746
2023-04-09T10:04:41.821Z,66.3638
2023-04-09T10:05:42.300Z,66.5680
2023-04-09T10:06:42.831Z,66.8054
2023-04-09T10:07:43.238Z,66.6676
2023-04-09T10:08:43.809Z,66.5214
2023-04-09T10:09:44.420Z,65.9416
2023-04-09T10:10:44.878Z,66.5499
2023-04-09T10:11:45.289Z,65.7990
2023-04-09T10:12:45.654Z,65.5106
2023-04-09T10:13:46.123Z,65.0844
2023-04-09T10:14:46.611Z,65.0835
2023-04-09T10:15:47.105Z,65.8083
2023-04-09T10:16:47.525Z,65.6649
2023-04-09T10:17:48.032Z,66.1148
2023-04-09T10:18:48.540Z,65.8106
2023-04-09T10:19:48.957Z,65.8771
2023-04-09T10:20:49.495Z,65.1605
2023-04-09T10:21:49.867Z,65.7022
2023-04-09T10:22:50.292Z,64.7524
2023-04-09T10:23:50.807Z,65.4699
2023-04-09T10:24:51.181Z,65.3255
2023-04-09T10:25:51.553Z,64.7338
2023-04-09T10:26:51.975Z,65.1632
2023-04-09T10:27:52.410Z,65.1012
2023-04-09T10:28:53.044Z,65.0318
2023-04-09T10:29:53.513Z,64.1513
2023-04-09T10:30:54.049Z,63.7260
2023-04-09T10:31:54.458Z,63.3970
2023-04-09T10:32:55.058Z,63.5296
2023-04-09T10:33:55.442Z,62.8927
2023-04-09T10:34:55.857Z,62.3573
2023-04-09T10:35:56.302Z,62.1741
2023-04-09T10:36:56.689Z,61.9970
2023-04-09T10:37:57.149Z,61.9303
2023-04-09T10:38:57.636Z,62.2222
2023-04-09T10:39:58.256Z,61.6338
2023-04-09T10:40:58.708Z,62.0459
2023-04-09T10:41:59.195Z,61.6771
2023-04-09T10:42:59.674Z,61.2125
2023-04-09T10:44:00.063Z,62.1044
2023-04-09T10:45:00.481Z,61.7888
2023-04-09T10:46:00.942Z,60.8335
2023-04-09T10:47:01.414Z,60.6271
2023-04-09T10:48:01.915Z,60.6136
2023-04-09T10:49:02.396Z,60.5383
2023-04-09T10:50:02.888Z,59.7796
2023-04-09T10:51:03.363Z,59.8731
2023-04-09T10:52:03.789Z,59.3362
2023-04-09T10:53:04.185Z,60.2195
2023-04-09T10:54:04.632Z,59.9710
2023-04-09T10:55:05.129Z,58.1271
2023-04-09T10:56:05.576Z,58.1344
2023-04-09T10:57:05.973Z,57.9618
2023-04-09T10:58:06.624Z,57.8597
2023-04-09T10:59:07.535Z,58.8785
2023-04-09T11:00:08.004Z,58.9469
2023-04-09T11:01:08.370Z,58.3955
2023-04-09T11:02:09.102Z,58.7442
2023-04-09T11:03:10.077Z,58.9506
2023-04-09T11:04:11.158Z,57.9163
2023-04-09T11:05:11.672Z,58.4055
2023-04-09T11:06:12.069Z,59.5332
2023-04-09T11:07:12.544Z,59.1727
2023-04-09T11:08:12.882Z,58.6043
2023-04-09T11:09:13.341Z,57.9101
2023-04-09T11:10:13.749Z,58.7228
2023-04-09T11:11:14.236Z,59.5230
2023-04-09T11:12:14.721Z,58.1740
2023-04-09T11:13:15.112Z,57.4191
2023-04-09T11:14:15.656Z,56.8173
2023-04-09T11:15:16.054Z,57.3777
2023-04-09T11:16:24.095Z,56.4451
2023-04-09T11:17:16.844Z,55.9193
2023-04-09T11:18:17.343Z,56.3813
2023-04-09T11:19:17.794Z,55.7767
2023-04-09T11:20:18.155Z,56.2391
2023-04-09T11:21:18.673Z,55.4556
2023-04-09T11:22:19.017Z,54.7347
2023-04-09T11:23:19.370Z,55.0751
2023-04-09T11:24:19.794Z,55.4280
2023-04-09T11:25:20.182Z,55.0103
2023-04-09T11:26:20.641Z,54.9497
2023-04-09T11:27:21.087Z,54.4969
2023-04-09T11:28:21.556Z,55.0896
2023-04-09T11:29:21.866Z,53.8807
2023-04-09T11:30:22.241Z,55.0594
2023-04-09T11:31:22.633Z,55.4116
2023-04-09T11:32:23.200Z,55.6995
2023-04-09T11:33:23.506Z,54.5318
2023-04-09T11:34:23.857Z,54.3900
2023-04-09T11:35:24.197Z,54.3032
2023-04-09T11:36:24.575Z,52.6281
2023-04-09T11:37:25.013Z,52.5423
2023-04-09T11:38:25.377Z,52.5525
2023-04-09T11:39:25.764Z,53.5957
2023-04-09T11:40:26.073Z,52.6349
2023-04-09T11:41:26.523Z,51.8290
2023-04-09T11:42:26.901Z,53.1189
2023-04-09T11:43:27.228Z,53.7057
2023-04-09T11:44:27.555Z,52.8671
2023-04-09T11:45:27.893Z,51.5746
2023-04-09T11:46:28.256Z,51.9537
2023-04-09T11:47:28.627Z,52.0031
2023-04-09T11:48:28.940Z,51.2980
2023-04-09T11:49:29.369Z,51.3207
2023-04-09T11:50:29.707Z,49.2046
2023-04-09T11:51:30.065Z,47.3830
2023-04-09T11:52:30.372Z,46.3333
2023-04-09T11:53:30.729Z,43.0519
2023-04-09T11:54:30.988Z,43.4014
2023-04-09T11:55:31.343Z,43.9169
2023-04-09T11:56:31.598Z,40.8656
2023-04-09T11:57:31.828Z,40.3885
2023-04-09T11:58:32.130Z,41.3519
2023-04-09T11:59:32.507Z,41.0079
2023-04-09T12:00:32.763Z,37.7882
2023-04-09T12:01:33.111Z,39.2774
2023-04-09T12:02:33.782Z,41.6233
2023-04-09T12:03:35.025Z,42.8832
2023-04-09T12:04:35.658Z,43.0615
2023-04-09T12:05:35.866Z,42.7631
2023-04-09T12:06:36.048Z,40.6783
2023-04-09T12:07:36.261Z,39.8073
2023-04-09T12:08:36.407Z,41.9824
2023-04-09T12:09:36.652Z,41.4282
2023-04-09T12:10:36.799Z,40.7394
2023-04-09T12:11:36.990Z,41.7487